Time;durP1;ratioP1;P1;durP2;ratioP2;P2;SDS_P1;SDS_P2;PMS_P1;PMS_P2;Temp;Humidity;BMP_temperature;BMP_pressure;BME280_temperature;BME280_humidity;BME280_pressure;Samples;Min_cycle;Max_cycle;Signal;HPM_P1;HPM_P2
2022/07/21 00:00:42;;;;;;;14.55;12.98;;;20.40;47.00;;;;;;7363138;19;20010;-76
2022/07/21 00:03:12;;;;;;;14.75;12.35;;;20.40;46.20;;;;;;7359774;19;20011;-77
2022/07/21 00:05:42;;;;;;;16.73;13.50;;;20.40;46.70;;;;;;7384487;19;20021;-77
2022/07/21 00:08:12;;;;;;;15.70;12.65;;;20.20;47.40;;;;;;7361264;19;20038;-77
2022/07/21 00:10:45;;;;;;;17.55;13.80;;;20.10;50.10;;;;;;7362642;19;20026;-77
2022/07/21 00:13:15;;;;;;;17.52;14.45;;;20.10;50.30;;;;;;7360055;19;20038;-77
2022/07/21 00:15:45;;;;;;;15.30;13.77;;;20.10;50.80;;;;;;7364137;19;20086;-76
2022/07/21 00:18:16;;;;;;;17.08;13.50;;;20.00;50.10;;;;;;7363886;19;20010;-76
2022/07/21 00:20:46;;;;;;;17.00;13.68;;;20.00;50.00;;;;;;7383485;19;20469;-76
2022/07/21 00:23:15;;;;;;;16.48;13.70;;;20.00;48.30;;;;;;7359491;19;20006;-76
2022/07/21 00:25:48;;;;;;;18.38;14.73;;;20.00;49.90;;;;;;7362581;19;20085;-76
2022/07/21 00:28:18;;;;;;;18.42;15.13;;;20.00;50.10;;;;;;7367155;19;20018;-77
2022/07/21 00:30:48;;;;;;;17.30;15.20;;;20.00;50.20;;;;;;7370106;19;20007;-77
2022/07/21 00:33:18;;;;;;;19.42;15.57;;;20.10;50.20;;;;;;7366585;19;20014;-77
2022/07/21 00:35:48;;;;;;;21.95;16.75;;;20.10;50.30;;;;;;7391933;19;20018;-76
2022/07/21 00:38:18;;;;;;;23.60;18.13;;;20.00;49.00;;;;;;7369135;19;20111;-76
2022/07/21 00:40:51;;;;;;;20.27;16.58;;;20.00;50.10;;;;;;7368656;19;20021;-76
2022/07/21 00:43:20;;;;;;;20.60;18.02;;;20.10;50.20;;;;;;7366059;19;20018;-76
2022/07/21 00:45:50;;;;;;;22.55;17.15;;;20.00;48.60;;;;;;7367777;19;20022;-77
2022/07/21 00:48:21;;;;;;;18.20;14.90;;;20.00;49.70;;;;;;7370522;19;20019;-77
2022/07/21 00:50:51;;;;;;;26.90;15.43;;;20.00;48.80;;;;;;7390151;19;20468;-77
2022/07/21 00:53:21;;;;;;;16.67;13.95;;;20.10;47.60;;;;;;7366771;19;20043;-77
2022/07/21 00:55:54;;;;;;;16.60;14.90;;;20.10;46.30;;;;;;7368336;19;20367;-77
2022/07/21 00:58:26;;;;;;;16.95;14.75;;;20.10;43.80;;;;;;7370066;19;20470;-78
2022/07/21 01:00:56;;;;;;;17.58;13.07;;;20.10;45.20;;;;;;7369115;19;20030;-76
2022/07/21 01:03:26;;;;;;;14.88;13.38;;;20.10;43.40;;;;;;7367126;19;20123;-77
2022/07/21 01:05:56;;;;;;;15.35;13.52;;;20.10;43.80;;;;;;7389922;19;20492;-77
2022/07/21 01:08:27;;;;;;;15.55;13.23;;;20.10;44.10;;;;;;7365317;19;20010;-77
2022/07/21 01:11:00;;;;;;;14.10;12.70;;;20.10;42.10;;;;;;7361963;19;20315;-77
2022/07/21 01:13:30;;;;;;;14.95;12.18;;;20.10;40.00;;;;;;7363189;19;20026;-77
2022/07/21 01:16:00;;;;;;;14.55;12.85;;;20.10;39.50;;;;;;7363828;19;20010;-77
2022/07/21 01:18:31;;;;;;;15.18;11.85;;;20.10;38.50;;;;;;7365782;19;20018;-77
2022/07/21 01:21:06;;;;;;;15.40;13.13;;;20.00;40.10;;;;;;7369594;19;20018;-77
2022/07/21 01:23:38;;;;;;;15.10;13.15;;;20.00;41.00;;;;;;7387139;19;20097;-77
2022/07/21 01:26:08;;;;;;;14.95;12.80;;;20.00;43.20;;;;;;7361726;19;20010;-77
2022/07/21 01:28:38;;;;;;;14.90;13.35;;;20.00;45.00;;;;;;7364979;19;20015;-76
2022/07/21 01:31:08;;;;;;;17.58;14.25;;;20.10;46.00;;;;;;7361088;19;20017;-76
2022/07/21 01:33:38;;;;;;;18.45;15.63;;;20.00;46.80;;;;;;7361907;19;20043;-77
2022/07/21 01:36:09;;;;;;;18.95;14.63;;;20.00;47.50;;;;;;7364196;19;20006;-76
2022/07/21 01:41:34;;;;;;;22.95;15.73;;;20.10;46.80;;;;;;7357811;19;20007;-77
2022/07/21 01:44:08;;;;;;;16.95;13.73;;;20.20;46.20;;;;;;7364565;19;20101;-76
2022/07/21 01:46:39;;;;;;;16.63;14.38;;;20.10;46.70;;;;;;7361860;19;20017;-76
2022/07/21 01:49:10;;;;;;;17.38;13.77;;;20.20;46.80;;;;;;7364536;19;20018;-75
2022/07/21 01:51:40;;;;;;;15.90;13.95;;;20.20;46.50;;;;;;7360212;19;20017;-78
2022/07/21 01:54:13;;;;;;;16.70;13.73;;;20.20;45.00;;;;;;7365164;19;20078;-76
2022/07/21 01:56:50;;;;;;;15.80;14.10;;;20.10;46.10;;;;;;7384194;19;20010;-77
2022/07/21 01:59:20;;;;;;;18.48;14.60;;;20.20;45.80;;;;;;7364425;19;20081;-76
2022/07/21 02:01:50;;;;;;;17.55;13.70;;;20.20;45.10;;;;;;7358382;19;20014;-76
2022/07/21 02:04:20;;;;;;;19.52;14.50;;;20.30;45.90;;;;;;7365120;19;20010;-76
2022/07/21 02:06:50;;;;;;;17.77;14.95;;;20.20;45.10;;;;;;7363213;19;20492;-76
2022/07/21 02:09:22;;;;;;;17.48;15.18;;;20.10;45.00;;;;;;7363548;19;20734;-76
2022/07/21 02:11:53;;;;;;;21.70;15.95;;;20.10;46.90;;;;;;7380540;19;20014;-77
2022/07/21 02:14:23;;;;;;;21.75;16.02;;;20.20;49.20;;;;;;7364433;19;20073;-78
2022/07/21 02:16:53;;;;;;;19.50;15.80;;;20.20;49.60;;;;;;7361706;19;20022;-78
2022/07/21 02:19:23;;;;;;;20.08;14.48;;;20.10;50.20;;;;;;7363763;19;20107;-79
2022/07/21 02:21:53;;;;;;;21.25;15.38;;;20.30;52.90;;;;;;7358281;19;20020;-78
2022/07/21 02:24:25;;;;;;;22.58;16.90;;;20.10;52.80;;;;;;7364436;19;20078;-79
2022/07/21 02:26:55;;;;;;;21.00;17.13;;;20.00;54.30;;;;;;7384545;19;20018;-80
2022/07/21 02:29:25;;;;;;;19.80;16.58;;;19.90;55.80;;;;;;7363070;19;20034;-80
2022/07/21 02:31:55;;;;;;;19.95;17.13;;;19.80;56.30;;;;;;7356896;19;20646;-79
2022/07/21 02:34:25;;;;;;;22.85;17.27;;;19.90;57.90;;;;;;7362058;19;20010;-80
2022/07/21 02:36:55;;;;;;;20.95;16.95;;;19.80;57.40;;;;;;7362450;19;20034;-78
2022/07/21 02:39:27;;;;;;;22.55;17.45;;;19.80;58.20;;;;;;7362790;19;20021;-79
2022/07/21 02:41:58;;;;;;;18.75;16.75;;;19.80;58.20;;;;;;7379681;19;20501;-79
2022/07/21 02:44:30;;;;;;;22.30;17.15;;;19.90;58.30;;;;;;7363971;19;20010;-78
2022/07/21 02:47:00;;;;;;;20.08;16.95;;;19.90;60.10;;;;;;7358924;19;20015;-79
2022/07/21 02:49:32;;;;;;;21.73;17.67;;;19.80;59.70;;;;;;7362579;19;20018;-79
2022/07/21 02:52:02;;;;;;;20.38;17.33;;;19.80;60.80;;;;;;7357424;19;20101;-79
2022/07/21 02:54:34;;;;;;;18.13;16.08;;;19.90;61.90;;;;;;7363705;19;20032;-79
2022/07/21 02:57:04;;;;;;;21.10;17.02;;;19.70;60.90;;;;;;7359610;19;20032;-79
2022/07/21 02:59:38;;;;;;;23.95;17.83;;;19.90;61.80;;;;;;7383639;19;20126;-79
2022/07/21 03:02:08;;;;;;;24.40;17.20;;;19.70;59.20;;;;;;7357724;19;20051;-80
2022/07/21 03:04:38;;;;;;;19.90;17.25;;;19.60;59.60;;;;;;7362841;19;20038;-79
2022/07/21 03:07:08;;;;;;;21.20;17.58;;;19.50;61.50;;;;;;7360360;19;20118;-79
2022/07/21 03:09:40;;;;;;;20.05;17.52;;;19.40;62.00;;;;;;7360919;19;20013;-80
2022/07/21 03:12:10;;;;;;;24.20;19.17;;;19.40;63.70;;;;;;7358707;19;20018;-79
2022/07/21 03:14:40;;;;;;;24.58;19.15;;;19.50;66.30;;;;;;7384930;19;20074;-79
2022/07/21 03:17:10;;;;;;;19.83;17.77;;;19.40;66.30;;;;;;7357899;19;20085;-80
2022/07/21 03:19:40;;;;;;;24.48;18.88;;;19.40;66.40;;;;;;7361311;19;20032;-78
2022/07/21 03:22:10;;;;;;;23.05;19.20;;;19.40;67.90;;;;;;7358064;19;20011;-78
2022/07/21 03:24:42;;;;;;;25.55;18.70;;;19.40;69.10;;;;;;7362814;19;20025;-79
2022/07/21 03:27:12;;;;;;;20.00;17.88;;;19.40;69.50;;;;;;7359761;19;20466;-79
2022/07/21 03:29:42;;;;;;;20.10;17.88;;;19.40;68.20;;;;;;7381860;19;20078;-78
2022/07/21 03:32:12;;;;;;;18.70;16.67;;;19.40;66.70;;;;;;7356630;19;20006;-78
2022/07/21 03:34:44;;;;;;;18.77;15.93;;;19.30;66.20;;;;;;7361436;19;20074;-78
2022/07/21 03:37:14;;;;;;;22.17;17.08;;;19.30;66.10;;;;;;7361138;19;20081;-79
2022/07/21 03:39:47;;;;;;;18.05;15.63;;;19.50;65.80;;;;;;7359770;19;20019;-79
2022/07/21 03:42:17;;;;;;;19.13;16.33;;;19.50;64.40;;;;;;7358541;19;20010;-79
2022/07/21 03:44:47;;;;;;;16.77;14.85;;;19.50;62.20;;;;;;7383549;19;20018;-79
2022/07/21 03:47:16;;;;;;;17.38;15.18;;;19.50;58.10;;;;;;7357976;19;20098;-79
2022/07/21 03:49:46;;;;;;;19.02;14.85;;;19.50;57.40;;;;;;7359036;19;20571;-79
2022/07/21 03:52:16;;;;;;;16.95;15.10;;;19.60;56.60;;;;;;7358464;19;20014;-78
2022/07/21 03:54:49;;;;;;;21.13;15.73;;;19.60;58.00;;;;;;7362115;19;20573;-79
2022/07/21 03:57:18;;;;;;;21.38;15.77;;;19.50;59.40;;;;;;7358161;19;20529;-80
2022/07/21 03:59:48;;;;;;;22.50;16.63;;;19.50;59.70;;;;;;7379514;19;20022;-77
2022/07/21 04:02:26;;;;;;;18.00;15.32;;;19.70;61.00;;;;;;7358866;19;20017;-78
2022/07/21 04:04:57;;;;;;;17.77;14.60;;;19.80;59.20;;;;;;7368711;19;20017;-78
2022/07/21 04:07:27;;;;;;;19.45;15.70;;;19.60;56.30;;;;;;7365671;19;20010;-79
2022/07/21 04:09:59;;;;;;;19.45;15.88;;;19.60;57.90;;;;;;7363733;19;20010;-78
2022/07/21 04:12:30;;;;;;;20.25;15.98;;;19.60;58.00;;;;;;7364114;19;20078;-79
2022/07/21 04:15:00;;;;;;;18.83;14.18;;;19.70;58.10;;;;;;7390274;19;20014;-78
2022/07/21 04:17:30;;;;;;;17.33;15.52;;;19.60;56.00;;;;;;7364492;19;20007;-78
2022/07/21 04:20:00;;;;;;;18.60;14.55;;;19.60;54.10;;;;;;7364356;19;20014;-78
2022/07/21 04:22:31;;;;;;;18.27;15.75;;;19.50;53.80;;;;;;7364649;19;20073;-78
2022/07/21 04:25:04;;;;;;;17.55;14.35;;;19.50;55.10;;;;;;7367311;19;20017;-78
2022/07/21 04:27:34;;;;;;;16.85;14.77;;;19.40;55.00;;;;;;7363541;19;20038;-79
2022/07/21 04:30:05;;;;;;;17.40;14.70;;;19.50;57.90;;;;;;7362188;19;20015;-78
2022/07/21 04:32:35;;;;;;;18.05;14.82;;;19.50;56.40;;;;;;7385147;19;20086;-79
2022/07/21 04:35:05;;;;;;;16.67;14.88;;;19.40;57.00;;;;;;7366403;19;20383;-79
2022/07/21 04:37:35;;;;;;;18.40;15.40;;;19.30;57.70;;;;;;7366830;19;21244;-79
2022/07/21 04:40:10;;;;;;;16.60;14.75;;;19.30;57.80;;;;;;7368958;19;20401;-78
2022/07/21 04:42:40;;;;;;;20.30;16.38;;;19.40;59.60;;;;;;7373614;19;20011;-78
2022/07/21 04:45:12;;;;;;;17.67;15.77;;;19.30;59.40;;;;;;7369001;19;20043;-78
2022/07/21 04:47:47;;;;;;;17.90;15.23;;;19.40;58.30;;;;;;7385634;19;20421;-78
2022/07/21 04:50:18;;;;;;;19.58;16.73;;;19.40;57.90;;;;;;7363596;19;20031;-78
2022/07/21 04:52:48;;;;;;;18.92;15.73;;;19.50;56.90;;;;;;7362438;19;20017;-78
2022/07/21 04:55:21;;;;;;;17.98;15.85;;;19.60;53.90;;;;;;7367085;19;20374;-78
2022/07/21 04:57:53;;;;;;;17.87;15.97;;;19.60;53.90;;;;;;7365673;19;20071;-77
2022/07/21 05:00:26;;;;;;;18.45;15.50;;;19.70;53.90;;;;;;7362962;19;20014;-78
2022/07/21 05:02:57;;;;;;;17.73;15.30;;;19.80;48.50;;;;;;7384030;19;20423;-77
2022/07/21 05:05:27;;;;;;;16.40;14.00;;;21.00;39.70;;;;;;7367583;19;20609;-78
2022/07/21 05:07:57;;;;;;;16.73;13.02;;;22.00;23.20;;;;;;7363592;19;20625;-77
2022/07/21 05:10:30;;;;;;;15.70;13.20;;;22.70;17.20;;;;;;7362950;19;20010;-78
2022/07/21 05:12:59;;;;;;;13.98;12.48;;;23.70;12.00;;;;;;7360566;19;20007;-78
2022/07/21 05:15:29;;;;;;;15.50;12.00;;;24.30;7.30;;;;;;7366185;19;20024;-76
2022/07/21 05:17:59;;;;;;;15.57;11.65;;;22.90;5.60;;;;;;7386812;19;20020;-77
2022/07/21 05:20:29;;;;;;;13.48;12.05;;;22.40;13.20;;;;;;7363390;19;20098;-77
2022/07/21 05:22:59;;;;;;;16.80;12.18;;;21.80;14.40;;;;;;7359756;19;20101;-77
2022/07/21 05:25:32;;;;;;;14.02;12.52;;;22.30;14.90;;;;;;7363717;19;20884;-77
2022/07/21 05:28:01;;;;;;;14.38;11.30;;;23.70;9.00;;;;;;7362967;19;20027;-77
2022/07/21 05:30:31;;;;;;;14.65;12.38;;;23.60;8.40;;;;;;7362318;19;20021;-77
2022/07/21 05:33:01;;;;;;;13.48;12.02;;;24.70;2.70;;;;;;7375652;19;20025;-76
2022/07/21 05:35:31;;;;;;;13.15;11.73;;;24.10;1.00;;;;;;7386942;19;20014;-76
2022/07/21 05:38:01;;;;;;;13.48;12.07;;;23.80;1.00;;;;;;7362643;19;20010;-76
2022/07/21 05:40:36;;;;;;;14.63;11.35;;;23.10;7.10;;;;;;7362710;19;20011;-75
2022/07/21 05:43:05;;;;;;;15.10;11.95;;;24.10;1.70;;;;;;7359522;19;20125;-75
2022/07/21 05:45:35;;;;;;;14.73;12.00;;;23.90;1.00;;;;;;7364580;19;20570;-76
2022/07/21 05:48:05;;;;;;;14.05;11.93;;;24.40;1.00;;;;;;7363430;19;20114;-76
2022/07/21 05:50:35;;;;;;;13.93;12.43;;;23.80;2.00;;;;;;7384060;19;20621;-76
2022/07/21 05:53:05;;;;;;;13.95;12.15;;;23.60;2.00;;;;;;7359989;19;20010;-76
2022/07/21 05:55:38;;;;;;;12.43;11.13;;;21.70;14.20;;;;;;7364069;19;20545;-76
2022/07/21 05:58:08;;;;;;;15.55;12.85;;;21.50;25.30;;;;;;7362079;19;20412;-75
2022/07/21 06:00:40;;;;;;;19.73;13.32;;;21.60;23.00;;;;;;7361401;19;20485;-75
2022/07/21 06:03:10;;;;;;;14.13;11.52;;;21.30;20.40;;;;;;7360150;19;20007;-76
2022/07/21 06:05:42;;;;;;;13.05;11.60;;;22.00;21.00;;;;;;7385833;19;20023;-76
2022/07/21 06:08:11;;;;;;;12.90;11.45;;;21.90;17.60;;;;;;7361819;19;20006;-76
2022/07/21 06:10:44;;;;;;;12.50;11.30;;;21.90;17.80;;;;;;7360029;19;20014;-75
2022/07/21 06:13:14;;;;;;;12.90;11.35;;;22.00;18.90;;;;;;7358908;19;20010;-76
2022/07/21 06:15:43;;;;;;;16.20;11.30;;;21.80;17.70;;;;;;7363229;19;20014;-75
2022/07/21 06:18:14;;;;;;;15.48;11.15;;;23.20;9.30;;;;;;7361991;19;20012;-75
2022/07/21 06:20:44;;;;;;;14.88;11.50;;;22.40;11.90;;;;;;7384353;19;20037;-74
2022/07/21 06:23:15;;;;;;;13.23;10.73;;;23.40;6.90;;;;;;7360981;19;20030;-75
2022/07/21 06:25:48;;;;;;;13.55;9.93;;;23.60;3.90;;;;;;7360755;19;20021;-75
2022/07/21 06:28:18;;;;;;;13.52;10.70;;;24.70;1.00;;;;;;7361888;19;20666;-76
2022/07/21 06:30:49;;;;;;;12.70;10.02;;;24.60;1.00;;;;;;7360195;19;20010;-75
2022/07/21 06:33:19;;;;;;;13.23;10.98;;;24.50;1.00;;;;;;7363724;19;20014;-75
2022/07/21 06:35:49;;;;;;;11.45;9.45;;;24.50;1.00;;;;;;7384835;19;20082;-75
2022/07/21 06:38:19;;;;;;;11.05;9.48;;;25.00;1.00;;;;;;7357452;19;20054;-74
2022/07/21 06:40:51;;;;;;;11.82;10.00;;;25.50;1.00;;;;;;7359851;19;20029;-75
2022/07/21 06:43:21;;;;;;;11.40;9.10;;;24.30;1.00;;;;;;7362950;19;20021;-75
2022/07/21 06:45:57;;;;;;;9.70;8.70;;;23.90;1.00;;;;;;7361659;19;20435;-75
2022/07/21 06:48:28;;;;;;;11.88;8.85;;;23.60;1.10;;;;;;7361169;19;20362;-74
2022/07/21 06:50:58;;;;;;;11.60;8.77;;;23.20;1.00;;;;;;7382554;19;20467;-76
2022/07/21 06:53:31;;;;;;;11.07;8.27;;;23.30;1.00;;;;;;7362174;19;20395;-76
2022/07/21 06:56:03;;;;;;;9.75;8.82;;;23.50;1.00;;;;;;7360255;19;20031;-76
2022/07/21 06:58:35;;;;;;;9.70;7.95;;;23.70;1.00;;;;;;7358492;19;20020;-75
2022/07/21 07:01:09;;;;;;;9.10;8.00;;;23.60;1.00;;;;;;7359204;19;20085;-75
2022/07/21 07:03:40;;;;;;;9.00;8.10;;;24.10;1.00;;;;;;7360953;19;20470;-75
2022/07/21 07:06:12;;;;;;;11.35;8.45;;;23.30;1.00;;;;;;7359055;19;20085;-74
2022/07/21 07:08:41;;;;;;;10.93;8.63;;;23.40;1.00;;;;;;7380077;19;20019;-75
2022/07/21 07:11:16;;;;;;;10.10;8.30;;;23.20;1.00;;;;;;7357287;19;20084;-76
2022/07/21 07:13:46;;;;;;;9.55;8.45;;;23.80;1.00;;;;;;7359979;19;20015;-75
2022/07/21 07:16:29;;;;;;;10.23;7.73;;;24.00;1.00;;;;;;7359638;19;20014;-74
2022/07/21 07:18:59;;;;;;;9.57;8.50;;;24.40;1.00;;;;;;7357702;19;20010;-73
2022/07/21 07:21:29;;;;;;;9.45;8.43;;;24.40;1.00;;;;;;7357948;19;20016;-75
2022/07/21 07:23:59;;;;;;;8.82;7.93;;;24.00;1.00;;;;;;7383316;19;20541;-74
2022/07/21 07:26:32;;;;;;;10.38;8.57;;;24.10;1.00;;;;;;7360002;19;20018;-74
2022/07/21 07:29:01;;;;;;;9.68;8.20;;;24.20;1.00;;;;;;7357563;19;20524;-75
2022/07/21 07:31:31;;;;;;;8.82;8.02;;;24.70;1.00;;;;;;7358443;19;20109;-76
2022/07/21 07:34:01;;;;;;;9.20;7.68;;;25.00;1.00;;;;;;7361026;19;20030;-76
2022/07/21 07:36:32;;;;;;;9.18;8.07;;;24.00;1.00;;;;;;7358505;19;20026;-75
2022/07/21 07:39:02;;;;;;;8.75;7.72;;;24.40;1.00;;;;;;7368780;19;20018;-76
2022/07/21 07:41:35;;;;;;;13.35;7.65;;;24.40;1.00;;;;;;7380483;19;20007;-75
2022/07/21 07:44:06;;;;;;;10.52;7.63;;;23.50;1.00;;;;;;7359781;19;20113;-76
2022/07/21 07:46:36;;;;;;;8.43;6.60;;;24.20;1.00;;;;;;7359683;19;20006;-76
2022/07/21 07:49:06;;;;;;;8.32;7.18;;;24.40;1.00;;;;;;7358834;19;20099;-75
2022/07/21 07:51:45;;;;;;;9.93;7.63;;;24.10;1.00;;;;;;7355235;19;20010;-75
2022/07/21 07:54:15;;;;;;;9.63;7.95;;;23.90;1.00;;;;;;7360781;19;20039;-75
2022/07/21 07:56:47;;;;;;;8.32;7.45;;;23.90;1.00;;;;;;7379709;19;20735;-76
2022/07/21 07:59:17;;;;;;;12.75;7.45;;;24.10;1.00;;;;;;7359271;19;20010;-76
2022/07/21 08:01:47;;;;;;;14.20;7.82;;;24.30;1.00;;;;;;7358030;19;20482;-75
2022/07/21 08:04:17;;;;;;;8.00;6.88;;;24.90;1.00;;;;;;7361040;19;20014;-76
2022/07/21 08:06:47;;;;;;;7.60;6.80;;;24.90;1.00;;;;;;7358139;19;20013;-75
2022/07/21 08:09:18;;;;;;;9.40;6.60;;;25.30;1.00;;;;;;7359728;19;20027;-75
2022/07/21 08:11:52;;;;;;;8.15;6.32;;;25.00;1.00;;;;;;7379273;19;20034;-75
2022/07/21 08:14:21;;;;;;;8.40;6.65;;;24.60;1.00;;;;;;7357296;19;20002;-74
2022/07/21 08:16:51;;;;;;;6.90;6.18;;;24.60;1.00;;;;;;7356536;19;20010;-75
2022/07/21 08:19:21;;;;;;;9.75;6.55;;;25.30;1.00;;;;;;7358829;19;20014;-75
2022/07/21 08:21:51;;;;;;;8.05;6.70;;;25.30;1.00;;;;;;7357854;19;20007;-75
2022/07/21 08:24:41;;;;;;;9.43;6.57;;;25.00;1.00;;;;;;7359477;19;20010;-75
2022/07/21 08:27:14;;;;;;;8.38;5.88;;;25.90;1.00;;;;;;7356433;19;20038;-75
2022/07/21 08:29:44;;;;;;;7.10;5.60;;;26.20;1.00;;;;;;7380095;19;20478;-76
2022/07/21 08:32:14;;;;;;;7.85;5.68;;;26.20;1.00;;;;;;7359819;19;20013;-74
2022/07/21 08:34:44;;;;;;;5.72;5.13;;;26.00;1.00;;;;;;7358300;19;20070;-76
2022/07/21 08:37:14;;;;;;;6.45;5.85;;;26.00;1.00;;;;;;7357626;19;20133;-73
2022/07/21 08:39:44;;;;;;;8.13;5.50;;;24.80;1.00;;;;;;7359177;19;20007;-74
2022/07/21 08:42:17;;;;;;;6.90;5.70;;;24.90;1.00;;;;;;7358372;19;20010;-76
2022/07/21 08:44:47;;;;;;;7.27;5.00;;;25.50;1.00;;;;;;7381373;19;20086;-75
2022/07/21 08:47:17;;;;;;;11.93;6.22;;;25.80;1.00;;;;;;7355368;19;20074;-75
2022/07/21 08:49:49;;;;;;;8.43;6.22;;;25.50;1.00;;;;;;7364771;19;20018;-75
2022/07/21 08:52:19;;;;;;;7.75;6.03;;;24.20;1.00;;;;;;7366408;19;20010;-75
2022/07/21 08:54:49;;;;;;;8.27;6.28;;;24.30;1.00;;;;;;7364650;19;20459;-74
2022/07/21 08:57:22;;;;;;;8.95;6.22;;;23.70;1.00;;;;;;7359680;19;20011;-75
2022/07/21 08:59:51;;;;;;;7.07;6.00;;;24.80;1.00;;;;;;7386897;19;20013;-75
2022/07/21 09:02:29;;;;;;;11.35;5.70;;;24.40;1.00;;;;;;7366452;19;20018;-75
2022/07/21 09:04:59;;;;;;;8.13;5.45;;;24.40;1.00;;;;;;7365499;19;20111;-76
2022/07/21 09:07:29;;;;;;;9.00;6.25;;;25.00;1.00;;;;;;7360097;19;20109;-74
2022/07/21 09:10:01;;;;;;;7.85;6.05;;;24.60;1.00;;;;;;7362798;19;20482;-74
2022/07/21 09:12:36;;;;;;;7.93;6.53;;;24.80;1.00;;;;;;7363597;19;20014;-75
2022/07/21 09:15:15;;;;;;;10.48;6.22;;;25.00;1.00;;;;;;7364574;19;20058;-74
2022/07/21 09:17:45;;;;;;;8.98;6.25;;;24.70;1.00;;;;;;7376846;19;20020;-75
2022/07/21 09:20:35;;;;;;;7.63;5.95;;;24.60;1.00;;;;;;7362172;19;20015;-75
2022/07/21 09:23:08;;;;;;;10.23;6.80;;;25.70;1.00;;;;;;7365394;19;20007;-76
2022/07/21 09:25:43;;;;;;;6.60;5.75;;;26.10;1.00;;;;;;7362729;19;20014;-75
2022/07/21 09:28:18;;;;;;;6.30;5.70;;;25.60;1.00;;;;;;7362095;19;20087;-75
2022/07/21 09:30:57;;;;;;;7.15;5.95;;;24.50;1.00;;;;;;7361523;19;20021;-74
2022/07/21 09:33:32;;;;;;;9.80;5.93;;;24.40;1.00;;;;;;7364285;19;20493;-74
2022/07/21 09:36:08;;;;;;;7.22;5.70;;;25.20;1.00;;;;;;7368753;19;20046;-73
2022/07/21 09:38:39;;;;;;;9.93;5.90;;;25.00;1.00;;;;;;7385094;19;20030;-75
2022/07/21 09:41:11;;;;;;;6.72;5.90;;;25.10;1.00;;;;;;7362385;19;20010;-75
2022/07/21 09:43:46;;;;;;;7.50;5.57;;;24.60;1.00;;;;;;7364670;19;20478;-74
2022/07/21 09:46:19;;;;;;;7.10;5.68;;;24.60;1.00;;;;;;7360393;19;20423;-76
2022/07/21 09:48:51;;;;;;;7.30;4.93;;;24.90;1.00;;;;;;7360725;19;20013;-75
2022/07/21 09:51:43;;;;;;;7.15;4.97;;;24.60;1.00;;;;;;7358476;19;20018;-75
2022/07/21 09:54:14;;;;;;;7.05;5.40;;;24.50;1.00;;;;;;7363879;19;20015;-75
2022/07/21 09:56:47;;;;;;;8.45;5.25;;;25.00;1.00;;;;;;7382202;19;20170;-73
2022/07/21 09:59:20;;;;;;;6.32;5.43;;;24.90;1.00;;;;;;7360725;19;20016;-74
2022/07/21 10:02:17;;;;;;;9.15;5.95;;;24.50;1.00;;;;;;7360576;19;20329;-75
2022/07/21 10:04:49;;;;;;;7.70;5.70;;;24.30;1.00;;;;;;7362638;19;20010;-75
2022/07/21 10:07:39;;;;;;;6.93;5.95;;;24.30;1.00;;;;;;7356211;19;20090;-74
2022/07/21 10:10:11;;;;;;;5.53;5.03;;;24.50;1.00;;;;;;7360682;19;20015;-75
2022/07/21 10:12:42;;;;;;;6.80;5.15;;;24.90;1.00;;;;;;7362023;19;20032;-75
2022/07/21 10:15:14;;;;;;;6.07;5.47;;;24.70;1.00;;;;;;7363796;19;20512;-75
2022/07/21 10:17:47;;;;;;;6.68;4.85;;;24.50;1.00;;;;;;7382898;19;20017;-75
2022/07/21 10:20:23;;;;;;;5.90;5.00;;;24.60;1.00;;;;;;7360707;19;20013;-73
2022/07/21 10:23:06;;;;;;;5.63;5.13;;;24.60;1.00;;;;;;7363038;19;20366;-75
2022/07/21 10:25:36;;;;;;;5.88;5.28;;;25.20;1.00;;;;;;7362748;19;20014;-75
2022/07/21 10:28:20;;;;;;;5.78;5.18;;;25.70;1.00;;;;;;7360357;19;20014;-74
2022/07/21 10:30:55;;;;;;;5.75;4.85;;;25.90;1.00;;;;;;7359730;19;20568;-75
2022/07/21 10:33:54;;;;;;;6.28;5.38;;;26.00;1.00;;;;;;7363458;19;20014;-75
2022/07/21 10:36:42;;;;;;;5.55;4.78;;;26.30;1.00;;;;;;7362171;19;20006;-75
2022/07/21 10:39:24;;;;;;;5.03;4.43;;;26.50;1.00;;;;;;7359263;19;20018;-74
2022/07/21 10:41:58;;;;;;;5.85;4.63;;;25.90;1.00;;;;;;7381587;19;20078;-74
2022/07/21 10:44:43;;;;;;;5.60;4.78;;;26.10;1.00;;;;;;7362526;19;20011;-74
2022/07/21 10:47:19;;;;;;;4.38;3.78;;;26.80;1.00;;;;;;7359504;19;20125;-76
2022/07/21 10:49:54;;;;;;;4.80;4.30;;;26.00;1.00;;;;;;7360934;19;20017;-75
2022/07/21 10:52:54;;;;;;;5.65;4.60;;;26.60;1.00;;;;;;7362245;19;20513;-75
2022/07/21 10:55:31;;;;;;;4.57;4.18;;;26.70;1.00;;;;;;7361210;19;20039;-74
2022/07/21 10:58:26;;;;;;;7.97;4.82;;;26.70;1.00;;;;;;7359959;19;20062;-74
2022/07/21 11:00:58;;;;;;;5.35;4.65;;;26.10;1.00;;;;;;7359200;19;20078;-73
2022/07/21 11:03:40;;;;;;;6.78;4.72;;;26.20;1.00;;;;;;7361514;19;20015;-75
2022/07/21 11:06:24;;;;;;;6.70;4.47;;;26.10;1.00;;;;;;7359955;19;20018;-75
2022/07/21 11:09:11;;;;;;;6.10;4.25;;;25.80;1.00;;;;;;7381355;19;20055;-75
2022/07/21 11:11:43;;;;;;;5.35;4.85;;;25.90;1.00;;;;;;7357092;19;20493;-75
2022/07/21 11:14:15;;;;;;;5.85;4.22;;;25.80;1.00;;;;;;7362412;19;20017;-75
2022/07/21 11:17:05;;;;;;;4.47;3.90;;;26.10;1.00;;;;;;7360375;19;20513;-75
2022/07/21 11:19:41;;;;;;;5.32;4.05;;;25.80;1.00;;;;;;7358939;19;20010;-74
2022/07/21 11:22:17;;;;;;;4.35;3.95;;;26.50;1.00;;;;;;7359189;19;20454;-75
2022/07/21 11:24:49;;;;;;;5.82;4.55;;;27.00;1.00;;;;;;7360468;19;20022;-75
2022/07/21 11:27:21;;;;;;;5.55;4.32;;;27.80;1.00;;;;;;7357871;19;20074;-74
2022/07/21 11:29:54;;;;;;;5.63;3.88;;;27.60;1.00;;;;;;7381303;19;20017;-74
2022/07/21 11:32:24;;;;;;;5.57;4.30;;;27.20;1.00;;;;;;7357510;19;20588;-75
2022/07/21 11:34:59;;;;;;;5.05;4.43;;;26.60;1.00;;;;;;7360098;19;20499;-74
2022/07/21 11:37:33;;;;;;;6.53;4.30;;;26.70;1.00;;;;;;7357372;19;20057;-75
2022/07/21 11:40:08;;;;;;;6.18;4.38;;;27.20;1.00;;;;;;7358096;19;20474;-74
2022/07/21 11:42:39;;;;;;;5.43;4.20;;;28.10;1.00;;;;;;7361607;19;20017;-74
2022/07/21 11:45:11;;;;;;;4.88;4.30;;;27.20;1.00;;;;;;7360222;19;20015;-74
2022/07/21 11:47:41;;;;;;;6.07;4.60;;;27.20;1.00;;;;;;7376146;19;20017;-75
2022/07/21 11:50:22;;;;;;;6.28;4.53;;;27.20;1.00;;;;;;7355730;19;20118;-74
2022/07/21 11:52:52;;;;;;;7.38;4.57;;;27.50;1.00;;;;;;7354269;19;20015;-75
2022/07/21 11:55:22;;;;;;;6.05;4.97;;;27.10;1.00;;;;;;7358246;19;20018;-76
2022/07/21 11:57:52;;;;;;;5.85;4.93;;;27.80;1.00;;;;;;7358159;19;20497;-75
2022/07/21 12:00:22;;;;;;;7.07;5.10;;;27.60;1.00;;;;;;7354342;19;20075;-74
2022/07/21 12:02:53;;;;;;;7.70;5.20;;;27.60;1.00;;;;;;7381317;19;20512;-74
2022/07/21 12:05:26;;;;;;;6.30;4.90;;;27.20;1.00;;;;;;7359873;19;20014;-74
2022/07/21 12:07:56;;;;;;;7.50;5.15;;;27.00;1.00;;;;;;7357672;19;20549;-74
2022/07/21 12:10:28;;;;;;;6.10;4.85;;;26.60;1.00;;;;;;7355958;19;20496;-74
2022/07/21 12:13:02;;;;;;;6.75;5.70;;;26.50;1.00;;;;;;7358842;19;20063;-74
2022/07/21 12:15:34;;;;;;;7.03;5.80;;;26.90;1.00;;;;;;7357363;19;20010;-75
2022/07/21 12:18:06;;;;;;;5.43;4.90;;;27.20;1.00;;;;;;7354722;19;20478;-74
2022/07/21 12:20:44;;;;;;;6.07;4.95;;;27.30;1.00;;;;;;7375319;19;20546;-75
2022/07/21 12:23:24;;;;;;;5.97;5.38;;;27.20;1.00;;;;;;7361359;19;20038;-75
2022/07/21 12:25:56;;;;;;;10.05;5.65;;;27.40;1.00;;;;;;7363370;19;20485;-74
2022/07/21 12:28:46;;;;;;;5.82;5.10;;;26.80;1.00;;;;;;7363222;19;20010;-75
2022/07/21 12:31:20;;;;;;;6.22;5.57;;;26.60;1.00;;;;;;7363141;19;20006;-74
2022/07/21 12:33:52;;;;;;;9.40;5.97;;;27.50;1.00;;;;;;7366671;19;20090;-73
2022/07/21 12:36:45;;;;;;;6.75;5.57;;;27.80;1.00;;;;;;7365814;19;20006;-73
2022/07/21 12:42:07;;;;;;;5.75;5.10;;;27.80;1.00;;;;;;7361821;19;20010;-74
2022/07/21 12:44:38;;;;;;;6.78;5.28;;;27.70;1.00;;;;;;7388204;19;20010;-73
2022/07/21 12:47:19;;;;;;;6.50;5.43;;;27.70;1.00;;;;;;7362536;19;20077;-74
2022/07/21 12:50:00;;;;;;;5.47;4.97;;;27.50;1.00;;;;;;7364836;19;20014;-73
2022/07/21 12:52:48;;;;;;;7.57;5.30;;;27.60;1.00;;;;;;7364986;19;20552;-74
2022/07/21 12:55:18;;;;;;;7.32;5.43;;;26.80;1.00;;;;;;7364683;19;20003;-75
2022/07/21 12:57:48;;;;;;;6.72;4.93;;;27.20;1.00;;;;;;7362672;19;20402;-73
2022/07/21 13:00:18;;;;;;;5.60;4.68;;;28.30;1.00;;;;;;7363276;19;20059;-75
2022/07/21 13:02:50;;;;;;;5.50;4.57;;;28.10;1.00;;;;;;7388347;19;20011;-73
2022/07/21 13:05:20;;;;;;;5.85;4.90;;;27.90;1.00;;;;;;7365380;19;20070;-75
2022/07/21 13:07:53;;;;;;;8.63;4.80;;;28.10;1.00;;;;;;7360999;19;20044;-75
2022/07/21 13:10:23;;;;;;;5.32;4.82;;;28.20;1.00;;;;;;7363510;19;20014;-74
2022/07/21 13:12:54;;;;;;;7.63;6.93;;;27.70;1.00;;;;;;7365281;19;20021;-74